sensor_id;sensor_type;location;lat;lon;timestamp;P1;durP1;ratioP1;P2;durP2;ratioP2
73693;SDS011;61997;53.974;11.670;2023-11-18T00:00:34;5.00;;;2.42;;
73693;SDS011;61997;53.974;11.670;2023-11-18T00:02:59;3.55;;;1.83;;
73693;SDS011;61997;53.974;11.670;2023-11-18T00:05:25;4.57;;;2.08;;
73693;SDS011;61997;53.974;11.670;2023-11-18T00:07:53;5.47;;;2.28;;
73693;SDS011;61997;53.974;11.670;2023-11-18T00:10:18;4.20;;;2.10;;
73693;SDS011;61997;53.974;11.670;2023-11-18T00:12:45;5.15;;;2.30;;
73693;SDS011;61997;53.974;11.670;2023-11-18T00:15:12;4.25;;;2.53;;
73693;SDS011;61997;53.974;11.670;2023-11-18T00:17:38;4.10;;;1.98;;
73693;SDS011;61997;53.974;11.670;2023-11-18T00:20:03;4.95;;;2.15;;
73693;SDS011;61997;53.974;11.670;2023-11-18T00:22:34;5.82;;;2.40;;
73693;SDS011;61997;53.974;11.670;2023-11-18T00:25:00;5.15;;;2.20;;
73693;SDS011;61997;53.974;11.670;2023-11-18T00:27:25;4.32;;;2.13;;
73693;SDS011;61997;53.974;11.670;2023-11-18T00:29:51;3.25;;;1.92;;
73693;SDS011;61997;53.974;11.670;2023-11-18T00:32:18;3.90;;;2.25;;
73693;SDS011;61997;53.974;11.670;2023-11-18T00:34:46;5.72;;;2.58;;
73693;SDS011;61997;53.974;11.670;2023-11-18T00:37:12;3.00;;;1.67;;
73693;SDS011;61997;53.974;11.670;2023-11-18T00:39:39;5.40;;;2.63;;
73693;SDS011;61997;53.974;11.670;2023-11-18T00:42:04;4.28;;;2.15;;
73693;SDS011;61997;53.974;11.670;2023-11-18T00:44:30;5.05;;;2.83;;
73693;SDS011;61997;53.974;11.670;2023-11-18T00:46:59;4.10;;;2.03;;
73693;SDS011;61997;53.974;11.670;2023-11-18T00:49:26;4.60;;;2.30;;
73693;SDS011;61997;53.974;11.670;2023-11-18T00:51:51;4.40;;;2.50;;
73693;SDS011;61997;53.974;11.670;2023-11-18T00:54:18;4.32;;;2.00;;
73693;SDS011;61997;53.974;11.670;2023-11-18T00:56:44;3.72;;;2.00;;
73693;SDS011;61997;53.974;11.670;2023-11-18T00:59:12;4.93;;;2.33;;
73693;SDS011;61997;53.974;11.670;2023-11-18T01:01:38;4.95;;;2.55;;
73693;SDS011;61997;53.974;11.670;2023-11-18T01:04:03;4.85;;;2.97;;
73693;SDS011;61997;53.974;11.670;2023-11-18T01:06:28;4.50;;;2.22;;
73693;SDS011;61997;53.974;11.670;2023-11-18T01:08:54;4.95;;;2.45;;
73693;SDS011;61997;53.974;11.670;2023-11-18T01:11:20;5.13;;;2.40;;
73693;SDS011;61997;53.974;11.670;2023-11-18T01:13:51;4.10;;;2.35;;
73693;SDS011;61997;53.974;11.670;2023-11-18T01:16:19;4.55;;;2.55;;
73693;SDS011;61997;53.974;11.670;2023-11-18T01:18:45;4.30;;;2.20;;
73693;SDS011;61997;53.974;11.670;2023-11-18T01:21:11;4.45;;;2.03;;
73693;SDS011;61997;53.974;11.670;2023-11-18T01:23:37;4.20;;;2.03;;
73693;SDS011;61997;53.974;11.670;2023-11-18T01:26:03;5.10;;;2.38;;
73693;SDS011;61997;53.974;11.670;2023-11-18T01:28:36;4.10;;;2.20;;
73693;SDS011;61997;53.974;11.670;2023-11-18T01:31:03;5.10;;;2.33;;
73693;SDS011;61997;53.974;11.670;2023-11-18T01:33:29;3.45;;;2.25;;
73693;SDS011;61997;53.974;11.670;2023-11-18T01:35:55;4.97;;;2.25;;
73693;SDS011;61997;53.974;11.670;2023-11-18T01:38:23;4.78;;;2.10;;
73693;SDS011;61997;53.974;11.670;2023-11-18T01:43:20;3.80;;;2.10;;
73693;SDS011;61997;53.974;11.670;2023-11-18T01:45:47;5.53;;;2.50;;
73693;SDS011;61997;53.974;11.670;2023-11-18T01:48:13;6.88;;;2.47;;
73693;SDS011;61997;53.974;11.670;2023-11-18T01:50:39;4.88;;;2.55;;
73693;SDS011;61997;53.974;11.670;2023-11-18T01:53:06;6.97;;;2.53;;
73693;SDS011;61997;53.974;11.670;2023-11-18T01:55:34;5.60;;;2.75;;
73693;SDS011;61997;53.974;11.670;2023-11-18T01:58:00;5.13;;;2.53;;
73693;SDS011;61997;53.974;11.670;2023-11-18T02:00:33;4.65;;;2.40;;
73693;SDS011;61997;53.974;11.670;2023-11-18T02:03:01;4.88;;;2.50;;
73693;SDS011;61997;53.974;11.670;2023-11-18T02:05:26;5.55;;;2.47;;
73693;SDS011;61997;53.974;11.670;2023-11-18T02:07:53;5.18;;;2.67;;
73693;SDS011;61997;53.974;11.670;2023-11-18T02:10:19;4.20;;;2.08;;
73693;SDS011;61997;53.974;11.670;2023-11-18T02:12:46;4.85;;;2.40;;
73693;SDS011;61997;53.974;11.670;2023-11-18T02:15:18;4.70;;;2.97;;
73693;SDS011;61997;53.974;11.670;2023-11-18T02:17:44;5.10;;;2.60;;
73693;SDS011;61997;53.974;11.670;2023-11-18T02:20:10;6.15;;;3.03;;
73693;SDS011;61997;53.974;11.670;2023-11-18T02:22:44;5.85;;;3.00;;
73693;SDS011;61997;53.974;11.670;2023-11-18T02:25:13;4.90;;;2.85;;
73693;SDS011;61997;53.974;11.670;2023-11-18T02:27:40;5.22;;;2.85;;
73693;SDS011;61997;53.974;11.670;2023-11-18T02:30:06;5.93;;;3.05;;
73693;SDS011;61997;53.974;11.670;2023-11-18T02:32:37;6.25;;;3.20;;
73693;SDS011;61997;53.974;11.670;2023-11-18T02:37:46;4.72;;;2.75;;
73693;SDS011;61997;53.974;11.670;2023-11-18T02:40:13;4.93;;;2.67;;
73693;SDS011;61997;53.974;11.670;2023-11-18T02:43:00;6.20;;;3.22;;
73693;SDS011;61997;53.974;11.670;2023-11-18T02:45:26;4.90;;;2.42;;
73693;SDS011;61997;53.974;11.670;2023-11-18T02:47:52;5.65;;;2.83;;
73693;SDS011;61997;53.974;11.670;2023-11-18T02:50:22;5.63;;;2.97;;
73693;SDS011;61997;53.974;11.670;2023-11-18T02:52:49;6.00;;;2.65;;
73693;SDS011;61997;53.974;11.670;2023-11-18T02:55:14;5.22;;;3.05;;
73693;SDS011;61997;53.974;11.670;2023-11-18T02:57:40;5.22;;;2.78;;
73693;SDS011;61997;53.974;11.670;2023-11-18T03:00:05;4.70;;;3.03;;
73693;SDS011;61997;53.974;11.670;2023-11-18T03:02:36;5.38;;;2.70;;
73693;SDS011;61997;53.974;11.670;2023-11-18T03:05:04;7.13;;;3.35;;
73693;SDS011;61997;53.974;11.670;2023-11-18T03:07:36;6.00;;;3.25;;
73693;SDS011;61997;53.974;11.670;2023-11-18T03:10:06;5.88;;;3.17;;
73693;SDS011;61997;53.974;11.670;2023-11-18T03:12:41;4.72;;;2.70;;
73693;SDS011;61997;53.974;11.670;2023-11-18T03:15:07;5.88;;;2.83;;
73693;SDS011;61997;53.974;11.670;2023-11-18T03:17:36;8.23;;;3.25;;
73693;SDS011;61997;53.974;11.670;2023-11-18T03:20:03;4.18;;;2.75;;
73693;SDS011;61997;53.974;11.670;2023-11-18T03:22:30;6.40;;;2.95;;
73693;SDS011;61997;53.974;11.670;2023-11-18T03:24:56;4.72;;;2.80;;
73693;SDS011;61997;53.974;11.670;2023-11-18T03:27:21;5.68;;;3.03;;
73693;SDS011;61997;53.974;11.670;2023-11-18T03:29:48;4.30;;;2.40;;
73693;SDS011;61997;53.974;11.670;2023-11-18T03:32:13;5.93;;;2.97;;
73693;SDS011;61997;53.974;11.670;2023-11-18T03:34:38;5.57;;;3.00;;
73693;SDS011;61997;53.974;11.670;2023-11-18T03:37:04;6.70;;;2.90;;
73693;SDS011;61997;53.974;11.670;2023-11-18T03:39:30;5.80;;;3.00;;
73693;SDS011;61997;53.974;11.670;2023-11-18T03:41:55;6.13;;;2.78;;
73693;SDS011;61997;53.974;11.670;2023-11-18T03:44:22;6.22;;;3.05;;
73693;SDS011;61997;53.974;11.670;2023-11-18T03:46:48;5.90;;;2.80;;
73693;SDS011;61997;53.974;11.670;2023-11-18T03:49:14;7.13;;;2.80;;
73693;SDS011;61997;53.974;11.670;2023-11-18T03:51:39;4.97;;;2.30;;
73693;SDS011;61997;53.974;11.670;2023-11-18T03:54:05;5.60;;;3.25;;
73693;SDS011;61997;53.974;11.670;2023-11-18T03:56:33;4.75;;;2.20;;
73693;SDS011;61997;53.974;11.670;2023-11-18T03:58:59;3.22;;;2.20;;
73693;SDS011;61997;53.974;11.670;2023-11-18T04:01:25;3.67;;;2.22;;
73693;SDS011;61997;53.974;11.670;2023-11-18T04:03:53;5.28;;;3.08;;
73693;SDS011;61997;53.974;11.670;2023-11-18T04:06:20;5.43;;;2.60;;
73693;SDS011;61997;53.974;11.670;2023-11-18T04:08:47;5.85;;;2.88;;
73693;SDS011;61997;53.974;11.670;2023-11-18T04:11:13;5.22;;;2.40;;
73693;SDS011;61997;53.974;11.670;2023-11-18T04:13:41;4.88;;;2.50;;
73693;SDS011;61997;53.974;11.670;2023-11-18T04:16:09;5.85;;;3.55;;
73693;SDS011;61997;53.974;11.670;2023-11-18T04:18:39;5.97;;;2.78;;
73693;SDS011;61997;53.974;11.670;2023-11-18T04:21:08;5.35;;;2.65;;
73693;SDS011;61997;53.974;11.670;2023-11-18T04:23:43;5.47;;;2.60;;
73693;SDS011;61997;53.974;11.670;2023-11-18T04:26:11;4.45;;;2.10;;
73693;SDS011;61997;53.974;11.670;2023-11-18T04:28:37;3.85;;;2.33;;
73693;SDS011;61997;53.974;11.670;2023-11-18T04:31:03;6.38;;;2.72;;
73693;SDS011;61997;53.974;11.670;2023-11-18T04:33:30;5.90;;;3.00;;
73693;SDS011;61997;53.974;11.670;2023-11-18T04:35:55;4.82;;;2.63;;
73693;SDS011;61997;53.974;11.670;2023-11-18T04:38:23;5.95;;;2.40;;
73693;SDS011;61997;53.974;11.670;2023-11-18T04:40:50;7.07;;;2.60;;
73693;SDS011;61997;53.974;11.670;2023-11-18T04:43:15;6.65;;;2.85;;
73693;SDS011;61997;53.974;11.670;2023-11-18T04:45:44;5.32;;;2.75;;
73693;SDS011;61997;53.974;11.670;2023-11-18T04:48:09;5.68;;;2.97;;
73693;SDS011;61997;53.974;11.670;2023-11-18T04:50:35;5.57;;;2.65;;
73693;SDS011;61997;53.974;11.670;2023-11-18T04:53:00;5.25;;;2.80;;
73693;SDS011;61997;53.974;11.670;2023-11-18T04:55:27;4.90;;;2.83;;
73693;SDS011;61997;53.974;11.670;2023-11-18T04:57:52;4.75;;;2.60;;
73693;SDS011;61997;53.974;11.670;2023-11-18T05:00:18;4.50;;;2.70;;
73693;SDS011;61997;53.974;11.670;2023-11-18T05:02:44;5.72;;;2.78;;
73693;SDS011;61997;53.974;11.670;2023-11-18T05:05:12;4.68;;;2.70;;
73693;SDS011;61997;53.974;11.670;2023-11-18T05:07:39;5.72;;;3.00;;
73693;SDS011;61997;53.974;11.670;2023-11-18T05:10:05;5.03;;;2.42;;
73693;SDS011;61997;53.974;11.670;2023-11-18T05:12:33;4.88;;;2.53;;
73693;SDS011;61997;53.974;11.670;2023-11-18T05:14:59;5.28;;;2.42;;
73693;SDS011;61997;53.974;11.670;2023-11-18T05:17:24;5.07;;;2.53;;
73693;SDS011;61997;53.974;11.670;2023-11-18T05:19:51;5.28;;;2.90;;
73693;SDS011;61997;53.974;11.670;2023-11-18T05:22:16;4.78;;;2.60;;
73693;SDS011;61997;53.974;11.670;2023-11-18T05:24:42;3.97;;;2.42;;
73693;SDS011;61997;53.974;11.670;2023-11-18T05:27:08;7.30;;;3.10;;
73693;SDS011;61997;53.974;11.670;2023-11-18T05:29:33;7.60;;;2.63;;
73693;SDS011;61997;53.974;11.670;2023-11-18T05:31:59;4.22;;;2.80;;
73693;SDS011;61997;53.974;11.670;2023-11-18T05:34:24;4.82;;;2.22;;
73693;SDS011;61997;53.974;11.670;2023-11-18T05:36:50;4.80;;;2.58;;
73693;SDS011;61997;53.974;11.670;2023-11-18T05:39:19;5.68;;;2.60;;
73693;SDS011;61997;53.974;11.670;2023-11-18T05:41:46;5.03;;;2.35;;
73693;SDS011;61997;53.974;11.670;2023-11-18T05:44:15;4.40;;;2.47;;
73693;SDS011;61997;53.974;11.670;2023-11-18T05:46:44;4.45;;;2.25;;
73693;SDS011;61997;53.974;11.670;2023-11-18T05:49:12;4.88;;;2.45;;
73693;SDS011;61997;53.974;11.670;2023-11-18T05:51:39;5.63;;;2.90;;
73693;SDS011;61997;53.974;11.670;2023-11-18T05:54:08;3.75;;;2.40;;
73693;SDS011;61997;53.974;11.670;2023-11-18T05:56:33;6.13;;;2.90;;
73693;SDS011;61997;53.974;11.670;2023-11-18T05:58:58;4.68;;;2.20;;
73693;SDS011;61997;53.974;11.670;2023-11-18T06:01:24;5.07;;;2.55;;
73693;SDS011;61997;53.974;11.670;2023-11-18T06:03:52;5.63;;;2.42;;
73693;SDS011;61997;53.974;11.670;2023-11-18T06:06:18;5.00;;;1.80;;
73693;SDS011;61997;53.974;11.670;2023-11-18T06:08:46;4.03;;;2.17;;
73693;SDS011;61997;53.974;11.670;2023-11-18T06:11:13;3.88;;;2.25;;
73693;SDS011;61997;53.974;11.670;2023-11-18T06:13:42;4.75;;;2.25;;
73693;SDS011;61997;53.974;11.670;2023-11-18T06:16:20;5.80;;;2.28;;
73693;SDS011;61997;53.974;11.670;2023-11-18T06:18:51;4.35;;;2.45;;
73693;SDS011;61997;53.974;11.670;2023-11-18T06:21:18;5.25;;;2.85;;
73693;SDS011;61997;53.974;11.670;2023-11-18T06:23:45;4.70;;;2.15;;
73693;SDS011;61997;53.974;11.670;2023-11-18T06:26:12;4.63;;;1.88;;
73693;SDS011;61997;53.974;11.670;2023-11-18T06:28:39;3.88;;;2.10;;
73693;SDS011;61997;53.974;11.670;2023-11-18T06:31:05;4.05;;;2.10;;
73693;SDS011;61997;53.974;11.670;2023-11-18T06:33:35;3.60;;;1.90;;
73693;SDS011;61997;53.974;11.670;2023-11-18T06:36:02;4.50;;;2.38;;
73693;SDS011;61997;53.974;11.670;2023-11-18T06:38:28;3.65;;;2.17;;
73693;SDS011;61997;53.974;11.670;2023-11-18T06:40:55;5.00;;;2.38;;
73693;SDS011;61997;53.974;11.670;2023-11-18T06:43:23;4.18;;;2.25;;
73693;SDS011;61997;53.974;11.670;2023-11-18T06:45:49;3.95;;;1.90;;
73693;SDS011;61997;53.974;11.670;2023-11-18T06:48:15;4.07;;;2.03;;
73693;SDS011;61997;53.974;11.670;2023-11-18T06:53:10;5.32;;;2.17;;
73693;SDS011;61997;53.974;11.670;2023-11-18T06:55:36;3.20;;;2.20;;
73693;SDS011;61997;53.974;11.670;2023-11-18T06:58:02;3.72;;;1.90;;
73693;SDS011;61997;53.974;11.670;2023-11-18T07:00:27;3.88;;;1.50;;
73693;SDS011;61997;53.974;11.670;2023-11-18T07:02:53;4.22;;;1.98;;
73693;SDS011;61997;53.974;11.670;2023-11-18T07:05:19;3.50;;;1.83;;
73693;SDS011;61997;53.974;11.670;2023-11-18T07:07:45;3.42;;;2.03;;
73693;SDS011;61997;53.974;11.670;2023-11-18T07:10:11;4.97;;;2.22;;
73693;SDS011;61997;53.974;11.670;2023-11-18T07:12:38;3.50;;;1.92;;
73693;SDS011;61997;53.974;11.670;2023-11-18T07:15:04;4.57;;;2.10;;
73693;SDS011;61997;53.974;11.670;2023-11-18T07:17:30;3.63;;;2.03;;
73693;SDS011;61997;53.974;11.670;2023-11-18T07:19:55;5.00;;;2.25;;
73693;SDS011;61997;53.974;11.670;2023-11-18T07:22:21;4.80;;;2.15;;
73693;SDS011;61997;53.974;11.670;2023-11-18T07:24:46;4.72;;;2.22;;
73693;SDS011;61997;53.974;11.670;2023-11-18T07:27:12;3.80;;;2.15;;
73693;SDS011;61997;53.974;11.670;2023-11-18T07:29:38;3.92;;;2.03;;
73693;SDS011;61997;53.974;11.670;2023-11-18T07:32:03;3.78;;;2.17;;
73693;SDS011;61997;53.974;11.670;2023-11-18T07:34:33;4.20;;;2.25;;
73693;SDS011;61997;53.974;11.670;2023-11-18T07:36:59;4.05;;;1.58;;
73693;SDS011;61997;53.974;11.670;2023-11-18T07:39:24;4.20;;;1.80;;
73693;SDS011;61997;53.974;11.670;2023-11-18T07:42:08;4.13;;;2.03;;
73693;SDS011;61997;53.974;11.670;2023-11-18T07:44:34;3.97;;;2.00;;
73693;SDS011;61997;53.974;11.670;2023-11-18T07:46:59;3.38;;;1.80;;
73693;SDS011;61997;53.974;11.670;2023-11-18T07:49:24;3.65;;;1.98;;
73693;SDS011;61997;53.974;11.670;2023-11-18T07:51:51;3.53;;;1.90;;
73693;SDS011;61997;53.974;11.670;2023-11-18T07:54:16;3.88;;;1.63;;
73693;SDS011;61997;53.974;11.670;2023-11-18T07:56:43;2.50;;;1.83;;
73693;SDS011;61997;53.974;11.670;2023-11-18T07:59:11;4.45;;;2.17;;
73693;SDS011;61997;53.974;11.670;2023-11-18T08:01:41;4.32;;;1.90;;
73693;SDS011;61997;53.974;11.670;2023-11-18T08:04:09;2.35;;;1.73;;
73693;SDS011;61997;53.974;11.670;2023-11-18T08:06:35;5.25;;;2.13;;
73693;SDS011;61997;53.974;11.670;2023-11-18T08:09:00;4.55;;;2.22;;
73693;SDS011;61997;53.974;11.670;2023-11-18T08:11:25;4.03;;;2.13;;
73693;SDS011;61997;53.974;11.670;2023-11-18T08:13:51;3.60;;;1.90;;
73693;SDS011;61997;53.974;11.670;2023-11-18T08:16:18;4.03;;;2.15;;
73693;SDS011;61997;53.974;11.670;2023-11-18T08:18:44;5.57;;;2.45;;
73693;SDS011;61997;53.974;11.670;2023-11-18T08:21:10;3.50;;;1.88;;
73693;SDS011;61997;53.974;11.670;2023-11-18T08:23:37;4.13;;;1.85;;
73693;SDS011;61997;53.974;11.670;2023-11-18T08:26:02;2.97;;;1.70;;
73693;SDS011;61997;53.974;11.670;2023-11-18T08:28:30;3.95;;;1.80;;
73693;SDS011;61997;53.974;11.670;2023-11-18T08:30:56;4.03;;;1.88;;
73693;SDS011;61997;53.974;11.670;2023-11-18T08:33:21;4.72;;;2.53;;
73693;SDS011;61997;53.974;11.670;2023-11-18T08:35:49;3.33;;;2.00;;
73693;SDS011;61997;53.974;11.670;2023-11-18T08:38:14;3.40;;;1.85;;
73693;SDS011;61997;53.974;11.670;2023-11-18T08:40:40;3.95;;;1.92;;
73693;SDS011;61997;53.974;11.670;2023-11-18T08:43:07;2.78;;;1.92;;
73693;SDS011;61997;53.974;11.670;2023-11-18T08:45:33;3.58;;;2.15;;
73693;SDS011;61997;53.974;11.670;2023-11-18T08:48:00;4.07;;;1.90;;
73693;SDS011;61997;53.974;11.670;2023-11-18T08:50:27;3.60;;;1.80;;
73693;SDS011;61997;53.974;11.670;2023-11-18T08:52:54;4.78;;;2.17;;
73693;SDS011;61997;53.974;11.670;2023-11-18T08:55:23;3.88;;;1.88;;
73693;SDS011;61997;53.974;11.670;2023-11-18T08:58:03;3.13;;;1.90;;
73693;SDS011;61997;53.974;11.670;2023-11-18T09:00:40;4.88;;;2.22;;
73693;SDS011;61997;53.974;11.670;2023-11-18T09:03:09;3.97;;;2.03;;
73693;SDS011;61997;53.974;11.670;2023-11-18T09:05:48;2.70;;;2.10;;
73693;SDS011;61997;53.974;11.670;2023-11-18T09:08:23;3.90;;;1.83;;
73693;SDS011;61997;53.974;11.670;2023-11-18T09:11:00;4.50;;;1.85;;
73693;SDS011;61997;53.974;11.670;2023-11-18T09:13:32;3.28;;;1.70;;
73693;SDS011;61997;53.974;11.670;2023-11-18T09:16:00;4.03;;;2.00;;
73693;SDS011;61997;53.974;11.670;2023-11-18T09:18:37;4.40;;;2.25;;
73693;SDS011;61997;53.974;11.670;2023-11-18T09:21:05;3.85;;;2.00;;
73693;SDS011;61997;53.974;11.670;2023-11-18T09:23:31;3.83;;;2.10;;
73693;SDS011;61997;53.974;11.670;2023-11-18T09:25:59;4.25;;;1.80;;
73693;SDS011;61997;53.974;11.670;2023-11-18T09:28:26;5.38;;;2.33;;
73693;SDS011;61997;53.974;11.670;2023-11-18T09:30:55;3.28;;;1.90;;
73693;SDS011;61997;53.974;11.670;2023-11-18T09:33:25;4.00;;;2.03;;
73693;SDS011;61997;53.974;11.670;2023-11-18T09:36:12;4.18;;;2.05;;
73693;SDS011;61997;53.974;11.670;2023-11-18T09:38:38;3.33;;;1.98;;
73693;SDS011;61997;53.974;11.670;2023-11-18T09:41:08;4.18;;;2.10;;
73693;SDS011;61997;53.974;11.670;2023-11-18T09:46:10;3.83;;;2.17;;
73693;SDS011;61997;53.974;11.670;2023-11-18T09:48:40;5.05;;;2.40;;
73693;SDS011;61997;53.974;11.670;2023-11-18T09:51:08;3.55;;;1.95;;
73693;SDS011;61997;53.974;11.670;2023-11-18T09:53:35;4.40;;;2.30;;
73693;SDS011;61997;53.974;11.670;2023-11-18T09:56:07;4.72;;;2.13;;
73693;SDS011;61997;53.974;11.670;2023-11-18T09:58:40;3.78;;;1.83;;
73693;SDS011;61997;53.974;11.670;2023-11-18T10:01:09;5.57;;;2.38;;
73693;SDS011;61997;53.974;11.670;2023-11-18T10:06:07;3.00;;;1.88;;
73693;SDS011;61997;53.974;11.670;2023-11-18T10:08:34;3.45;;;1.90;;
73693;SDS011;61997;53.974;11.670;2023-11-18T10:11:05;5.07;;;2.25;;
73693;SDS011;61997;53.974;11.670;2023-11-18T10:13:34;4.40;;;2.15;;
73693;SDS011;61997;53.974;11.670;2023-11-18T10:16:05;5.78;;;2.17;;
73693;SDS011;61997;53.974;11.670;2023-11-18T10:18:34;4.18;;;2.35;;
73693;SDS011;61997;53.974;11.670;2023-11-18T10:21:02;4.97;;;2.15;;
73693;SDS011;61997;53.974;11.670;2023-11-18T10:23:29;4.22;;;1.77;;
73693;SDS011;61997;53.974;11.670;2023-11-18T10:25:59;6.35;;;2.50;;
73693;SDS011;61997;53.974;11.670;2023-11-18T10:28:33;4.80;;;2.10;;
73693;SDS011;61997;53.974;11.670;2023-11-18T10:31:19;4.40;;;2.25;;
73693;SDS011;61997;53.974;11.670;2023-11-18T10:33:45;4.82;;;2.25;;
73693;SDS011;61997;53.974;11.670;2023-11-18T10:36:21;4.45;;;2.40;;
73693;SDS011;61997;53.974;11.670;2023-11-18T10:38:48;5.50;;;2.50;;
73693;SDS011;61997;53.974;11.670;2023-11-18T10:41:15;5.05;;;2.65;;
73693;SDS011;61997;53.974;11.670;2023-11-18T10:43:43;5.97;;;2.95;;
73693;SDS011;61997;53.974;11.670;2023-11-18T10:46:13;5.22;;;3.28;;
73693;SDS011;61997;53.974;11.670;2023-11-18T10:51:13;5.85;;;3.08;;
73693;SDS011;61997;53.974;11.670;2023-11-18T10:53:41;6.28;;;3.05;;
73693;SDS011;61997;53.974;11.670;2023-11-18T10:56:23;6.45;;;2.95;;
73693;SDS011;61997;53.974;11.670;2023-11-18T10:58:59;6.20;;;3.38;;
73693;SDS011;61997;53.974;11.670;2023-11-18T11:01:36;6.35;;;3.35;;
73693;SDS011;61997;53.974;11.670;2023-11-18T11:04:09;5.85;;;3.10;;
73693;SDS011;61997;53.974;11.670;2023-11-18T11:06:42;7.38;;;3.85;;
73693;SDS011;61997;53.974;11.670;2023-11-18T11:09:08;7.22;;;3.30;;
73693;SDS011;61997;53.974;11.670;2023-11-18T11:11:49;6.43;;;3.03;;
73693;SDS011;61997;53.974;11.670;2023-11-18T11:14:20;4.63;;;2.92;;
73693;SDS011;61997;53.974;11.670;2023-11-18T11:16:54;7.55;;;3.38;;
73693;SDS011;61997;53.974;11.670;2023-11-18T11:19:32;5.75;;;3.58;;
73693;SDS011;61997;53.974;11.670;2023-11-18T11:22:09;6.07;;;2.90;;
73693;SDS011;61997;53.974;11.670;2023-11-18T11:27:42;6.45;;;3.33;;
73693;SDS011;61997;53.974;11.670;2023-11-18T11:30:23;7.70;;;3.75;;
73693;SDS011;61997;53.974;11.670;2023-11-18T11:33:05;5.80;;;2.95;;
73693;SDS011;61997;53.974;11.670;2023-11-18T11:35:39;6.03;;;3.42;;
73693;SDS011;61997;53.974;11.670;2023-11-18T11:38:09;6.75;;;3.72;;
73693;SDS011;61997;53.974;11.670;2023-11-18T11:43:04;5.60;;;3.15;;
73693;SDS011;61997;53.974;11.670;2023-11-18T11:45:34;5.85;;;3.38;;
73693;SDS011;61997;53.974;11.670;2023-11-18T11:48:01;8.15;;;3.65;;
73693;SDS011;61997;53.974;11.670;2023-11-18T11:54:16;6.60;;;3.97;;
73693;SDS011;61997;53.974;11.670;2023-11-18T11:57:10;6.13;;;3.45;;
73693;SDS011;61997;53.974;11.670;2023-11-18T12:02:12;6.45;;;3.30;;
73693;SDS011;61997;53.974;11.670;2023-11-18T12:04:44;5.70;;;3.40;;
73693;SDS011;61997;53.974;11.670;2023-11-18T12:09:35;5.93;;;3.15;;
73693;SDS011;61997;53.974;11.670;2023-11-18T12:12:13;7.93;;;4.07;;
73693;SDS011;61997;53.974;11.670;2023-11-18T12:14:51;6.97;;;3.67;;
73693;SDS011;61997;53.974;11.670;2023-11-18T12:17:25;5.97;;;3.53;;
73693;SDS011;61997;53.974;11.670;2023-11-18T12:19:57;7.20;;;3.45;;
73693;SDS011;61997;53.974;11.670;2023-11-18T12:23:02;7.22;;;3.70;;
73693;SDS011;61997;53.974;11.670;2023-11-18T12:25:39;6.93;;;3.75;;
73693;SDS011;61997;53.974;11.670;2023-11-18T12:28:09;6.18;;;3.80;;
73693;SDS011;61997;53.974;11.670;2023-11-18T12:33:03;7.53;;;4.05;;
73693;SDS011;61997;53.974;11.670;2023-11-18T12:41:19;11.77;;;5.13;;
73693;SDS011;61997;53.974;11.670;2023-11-18T12:46:52;10.27;;;4.90;;
73693;SDS011;61997;53.974;11.670;2023-11-18T12:49:19;9.85;;;5.80;;
73693;SDS011;61997;53.974;11.670;2023-11-18T12:51:48;8.73;;;4.90;;
73693;SDS011;61997;53.974;11.670;2023-11-18T12:54:15;9.95;;;4.65;;
73693;SDS011;61997;53.974;11.670;2023-11-18T12:56:41;7.28;;;4.45;;
73693;SDS011;61997;53.974;11.670;2023-11-18T12:59:09;9.63;;;4.47;;
73693;SDS011;61997;53.974;11.670;2023-11-18T13:01:35;9.88;;;4.80;;
73693;SDS011;61997;53.974;11.670;2023-11-18T13:04:04;6.85;;;4.32;;
73693;SDS011;61997;53.974;11.670;2023-11-18T13:06:29;10.55;;;4.88;;
73693;SDS011;61997;53.974;11.670;2023-11-18T13:08:55;10.05;;;4.95;;
73693;SDS011;61997;53.974;11.670;2023-11-18T13:11:24;9.15;;;5.43;;
73693;SDS011;61997;53.974;11.670;2023-11-18T13:13:52;9.63;;;5.13;;
73693;SDS011;61997;53.974;11.670;2023-11-18T13:16:18;10.15;;;4.88;;
73693;SDS011;61997;53.974;11.670;2023-11-18T13:18:44;8.68;;;5.05;;
73693;SDS011;61997;53.974;11.670;2023-11-18T13:21:15;7.72;;;4.47;;
73693;SDS011;61997;53.974;11.670;2023-11-18T13:23:44;9.70;;;5.38;;
73693;SDS011;61997;53.974;11.670;2023-11-18T13:26:12;8.32;;;4.88;;
73693;SDS011;61997;53.974;11.670;2023-11-18T13:28:38;8.27;;;4.60;;
73693;SDS011;61997;53.974;11.670;2023-11-18T13:31:08;10.25;;;4.82;;
73693;SDS011;61997;53.974;11.670;2023-11-18T13:33:42;8.70;;;4.57;;
73693;SDS011;61997;53.974;11.670;2023-11-18T13:36:08;8.35;;;4.78;;
73693;SDS011;61997;53.974;11.670;2023-11-18T13:38:37;9.38;;;4.68;;
73693;SDS011;61997;53.974;11.670;2023-11-18T13:41:04;10.32;;;4.72;;
73693;SDS011;61997;53.974;11.670;2023-11-18T13:43:45;11.80;;;5.13;;
73693;SDS011;61997;53.974;11.670;2023-11-18T13:46:13;9.20;;;4.25;;
73693;SDS011;61997;53.974;11.670;2023-11-18T13:48:40;8.98;;;5.20;;
73693;SDS011;61997;53.974;11.670;2023-11-18T13:51:09;9.80;;;4.85;;
73693;SDS011;61997;53.974;11.670;2023-11-18T13:53:40;8.05;;;4.65;;
73693;SDS011;61997;53.974;11.670;2023-11-18T13:56:09;7.88;;;4.47;;
73693;SDS011;61997;53.974;11.670;2023-11-18T13:58:36;8.73;;;4.25;;
73693;SDS011;61997;53.974;11.670;2023-11-18T14:01:08;10.23;;;4.95;;
73693;SDS011;61997;53.974;11.670;2023-11-18T14:03:35;9.18;;;4.57;;
73693;SDS011;61997;53.974;11.670;2023-11-18T14:06:08;8.75;;;4.03;;
73693;SDS011;61997;53.974;11.670;2023-11-18T14:08:37;7.90;;;4.22;;
73693;SDS011;61997;53.974;11.670;2023-11-18T14:11:02;9.48;;;4.22;;
73693;SDS011;61997;53.974;11.670;2023-11-18T14:13:30;7.95;;;4.57;;
73693;SDS011;61997;53.974;11.670;2023-11-18T14:15:57;8.15;;;4.28;;
73693;SDS011;61997;53.974;11.670;2023-11-18T14:18:23;9.82;;;4.95;;
73693;SDS011;61997;53.974;11.670;2023-11-18T14:20:48;10.27;;;4.80;;
73693;SDS011;61997;53.974;11.670;2023-11-18T14:23:15;8.57;;;4.25;;
73693;SDS011;61997;53.974;11.670;2023-11-18T14:25:41;8.13;;;4.53;;
73693;SDS011;61997;53.974;11.670;2023-11-18T14:28:07;7.80;;;4.03;;
73693;SDS011;61997;53.974;11.670;2023-11-18T14:30:34;8.23;;;4.32;;
73693;SDS011;61997;53.974;11.670;2023-11-18T14:33:00;9.27;;;4.45;;
73693;SDS011;61997;53.974;11.670;2023-11-18T14:35:26;7.45;;;4.53;;
73693;SDS011;61997;53.974;11.670;2023-11-18T14:37:51;7.47;;;4.45;;
73693;SDS011;61997;53.974;11.670;2023-11-18T14:40:17;7.00;;;3.95;;
73693;SDS011;61997;53.974;11.670;2023-11-18T14:42:44;8.23;;;4.45;;
73693;SDS011;61997;53.974;11.670;2023-11-18T14:45:11;10.75;;;4.65;;
73693;SDS011;61997;53.974;11.670;2023-11-18T14:47:41;8.73;;;4.20;;
73693;SDS011;61997;53.974;11.670;2023-11-18T14:50:10;8.35;;;4.65;;
73693;SDS011;61997;53.974;11.670;2023-11-18T14:52:43;8.13;;;4.28;;
73693;SDS011;61997;53.974;11.670;2023-11-18T14:55:10;7.35;;;4.40;;
73693;SDS011;61997;53.974;11.670;2023-11-18T14:57:40;7.82;;;4.10;;
73693;SDS011;61997;53.974;11.670;2023-11-18T15:00:07;8.00;;;4.60;;
73693;SDS011;61997;53.974;11.670;2023-11-18T15:02:44;7.97;;;4.20;;
73693;SDS011;61997;53.974;11.670;2023-11-18T15:05:11;5.65;;;3.90;;
73693;SDS011;61997;53.974;11.670;2023-11-18T15:07:37;10.48;;;4.20;;
73693;SDS011;61997;53.974;11.670;2023-11-18T15:10:03;8.85;;;3.80;;
73693;SDS011;61997;53.974;11.670;2023-11-18T15:12:29;7.90;;;4.18;;
73693;SDS011;61997;53.974;11.670;2023-11-18T15:14:56;7.38;;;3.83;;
73693;SDS011;61997;53.974;11.670;2023-11-18T15:17:25;8.85;;;3.97;;
73693;SDS011;61997;53.974;11.670;2023-11-18T15:19:51;6.15;;;3.92;;